Miles City, MT

11:42 PM MDT on September 15, 2014 (GMT -0600)
Wiley | Change Station
CLOSE
Current Station
Airport
Location: Miles City,
Elevation: 2628 ft
Nearby Weather Stations

Elev 2628 ft 46.43 °N, 105.88 °W | Updated 49 minutes ago

Clear
Clear
52 °F
Feels Like 52 °F
N
7
Wind Variable Wind from NE

Today
High -- | Low -- °F
--% Chance of Precip.
Yesterday
High -- | Low -- °F
Precip. -- in
6:41 AM 7:14 PM
Waning Gibbous, 49% visible
Pressure 30.04 in
Visibility 10.0 miles
Clouds Clear
Dew Point 41 °F
Humidity 66%
Rainfall 0.00 in
Snow Depth 0 in , 1 in , 1 in
UV 0 out of 12
Pollen 5.20 out of 12
Air Quality Not available.
Flu Activity Not available.
METAR KMLS 160453Z AUTO 04006KT 10SM CLR 11/05 A3004 RMK AO2 SLP172 T01110050

More Conditions Fewer Conditions

Pressure 30.04 in
Visibility 10.0 miles
Clouds Clear
Dew Point 41 °F
Humidity 66%
Rainfall 0.00 in
Snow Depth 0 in , 1 in , 1 in
UV 0 out of 12
Pollen 5.20 out of 12
Air Quality Not available.
Flu Activity Not available.
METAR KMLS 160453Z AUTO 04006KT 10SM CLR 11/05 A3004 RMK AO2 SLP172 T01110050

More Conditions Fewer Conditions

10-Day Weather Forecast

Almanac

Astronomy

Sep. 15, 2014 Rise Set
Actual Time 6:41 AM MDT 7:14 PM MDT
Civil Twilight 6:11 AM MDT 7:45 PM MDT
Nautical Twilight 5:35 AM MDT 8:20 PM MDT
Astronomical Twilight 4:57 AM MDT 8:58 PM MDT
Moon 11:39 PM MDT (9/15) 2:04 PM MDT (9/15)
Length of Visible Light 13h 33m
Length of Day
12h 33m
Tomorrow will be 3m 16s shorter.
Waning Gibbous, 49% of the Moon is Illuminated
Sep 16
Waning Gibbous
Sep 24
New
Oct 1
First Quarter
Oct 8
Full
Oct 15
Last Quarter

Yesterday's Extremes

State Highs State Lows

Community

WunderPhotos

Upload Photos

1,753,702 photos uploaded!

Nearby

Snow Depth

Station Depth Elevation
Badger Pass 0 in 6900 ft
Garver Creek 1 in 4250 ft
Black Pine 1 in 7210 ft
Daisy Peak 0 in 7600 ft
Fisher Creek 1 in 9100 ft

Earthquake Activity

City Distance Mag. Time & Date
No recent earthquake activity has been reported nearby.
Minimum magnitude displayed is 2.5.

Coastal Water Temperatures

Place Temperature
No Stations Reporting

Nearby Weather Stations